Time;durP1;ratioP1;P1;durP2;ratioP2;P2;SDS_P1;SDS_P2;PMS_P1;PMS_P2;Temp;Humidity;BMP_temperature;BMP_pressure;BME280_temperature;BME280_humidity;BME280_pressure;Samples;Min_cycle;Max_cycle;Signal;HPM_P1;HPM_P2
2021/05/07 00:01:27;;;;;;;;;;;;;;;21.25;35.13;100863.06;2166882;40;115712;-58
2021/05/07 00:02:58;;;;;;;;;;;;;;;21.24;34.94;100862.25;2166924;40;116095;-58
2021/05/07 00:04:30;;;;;;;;;;;;;;;21.25;35.04;100863.06;2167102;40;117703;-56
2021/05/07 00:06:04;;;;;;;;;;;;;;;21.22;35.62;100870.16;2168617;40;114734;-56
2021/05/07 00:07:35;;;;;;;;;;;;;;;21.20;35.35;100871.63;2162528;40;116252;-57
2021/05/07 00:09:06;;;;;;;;;;;;;;;21.20;35.51;100868.81;2172066;40;115716;-58
2021/05/07 00:10:37;;;;;;;;;;;;;;;21.19;35.09;100867.97;2169038;40;115553;-56
2021/05/07 00:12:09;;;;;;;;;;;;;;;21.19;35.67;100870.78;2167005;40;116920;-55
2021/05/07 00:13:41;;;;;;;;;;;;;;;21.17;35.36;100877.84;2161093;40;115556;-58
2021/05/07 00:15:13;;;;;;;;;;;;;;;21.16;35.80;100882.66;2164353;40;116199;-57
2021/05/07 00:16:44;;;;;;;;;;;;;;;21.15;35.69;100886.63;2166910;40;115481;-57
2021/05/07 00:18:15;;;;;;;;;;;;;;;21.14;35.81;100890.56;2168317;40;115504;-56
2021/05/07 00:19:47;;;;;;;;;;;;;;;21.12;35.78;100892.00;2161388;40;115612;-59
2021/05/07 00:21:18;;;;;;;;;;;;;;;21.11;35.75;100884.72;2168675;40;115644;-58
2021/05/07 00:22:49;;;;;;;;;;;;;;;21.11;36.08;100884.72;2167426;40;114150;-57
2021/05/07 00:24:27;;;;;;;;;;;;;;;21.09;35.83;100887.81;2172888;40;113919;-56
2021/05/07 00:25:58;;;;;;;;;;;;;;;21.10;36.03;100892.31;2168781;40;114082;-55
2021/05/07 00:27:29;;;;;;;;;;;;;;;21.06;35.96;100888.47;2167071;40;114060;-55
2021/05/07 00:29:00;;;;;;;;;;;;;;;21.07;35.72;100884.50;2161340;40;114045;-57
2021/05/07 00:30:31;;;;;;;;;;;;;;;21.07;35.94;100889.28;2164866;40;114481;-57
2021/05/07 00:32:02;;;;;;;;;;;;;;;21.06;35.99;100890.44;2168525;40;114264;-55
2021/05/07 00:33:34;;;;;;;;;;;;;;;21.04;35.68;100895.53;2172792;40;113930;-57
2021/05/07 00:35:05;;;;;;;;;;;;;;;21.04;35.54;100892.72;2155540;40;113980;-56
2021/05/07 00:36:36;;;;;;;;;;;;;;;21.03;36.16;100886.25;2164329;40;113864;-56
2021/05/07 00:38:08;;;;;;;;;;;;;;;21.03;35.98;100891.06;2167980;40;113753;-58
2021/05/07 00:39:39;;;;;;;;;;;;;;;21.03;35.73;100883.44;2171762;40;113979;-57
2021/05/07 00:41:10;;;;;;;;;;;;;;;21.02;36.09;100895.84;2167828;40;114441;-57
2021/05/07 00:42:41;;;;;;;;;;;;;;;21.01;36.04;100896.16;2170074;40;113805;-56
2021/05/07 00:44:12;;;;;;;;;;;;;;;21.00;36.35;100891.69;2167156;40;115332;-57
2021/05/07 00:45:43;;;;;;;;;;;;;;;21.00;36.16;100894.50;2166729;40;114786;-59
2021/05/07 00:47:16;;;;;;;;;;;;;;;20.98;36.18;100896.78;2168348;40;114862;-57
2021/05/07 00:48:47;;;;;;;;;;;;;;;20.96;36.13;100894.28;2163260;40;115020;-53
2021/05/07 00:50:19;;;;;;;;;;;;;;;20.97;36.58;100890.34;2173462;40;117208;-56
2021/05/07 00:51:51;;;;;;;;;;;;;;;21.00;36.12;100894.50;2169632;40;114911;-59
2021/05/07 00:53:22;;;;;;;;;;;;;;;20.99;36.50;100887.19;2168359;40;114627;-58
2021/05/07 00:54:53;;;;;;;;;;;;;;;20.98;36.30;100886.41;2158315;40;114862;-57
2021/05/07 00:56:24;;;;;;;;;;;;;;;20.97;36.23;100892.31;2164144;40;114980;-58
2021/05/07 00:57:56;;;;;;;;;;;;;;;20.98;35.90;100889.19;2168087;40;114789;-59
2021/05/07 00:59:27;;;;;;;;;;;;;;;20.96;36.33;100901.88;2167853;40;114823;-58
2021/05/07 01:00:58;;;;;;;;;;;;;;;20.96;36.50;100896.25;2167937;40;114853;-59
2021/05/07 01:02:29;;;;;;;;;;;;;;;20.92;35.95;100901.69;2161145;40;114734;-57
2021/05/07 01:04:00;;;;;;;;;;;;;;;20.91;35.99;100904.78;2168247;40;114842;-57
2021/05/07 01:05:31;;;;;;;;;;;;;;;20.92;36.38;100906.47;2172092;40;115501;-58
2021/05/07 01:07:02;;;;;;;;;;;;;;;20.89;36.25;100905.13;2160297;40;115572;-58
2021/05/07 01:08:34;;;;;;;;;;;;;;;20.86;36.26;100906.56;2163840;40;114793;-57
2021/05/07 01:10:07;;;;;;;;;;;;;;;20.85;36.25;100906.88;2167625;40;115758;-55
2021/05/07 01:11:39;;;;;;;;;;;;;;;20.81;36.09;100911.44;2162482;40;115588;-56
2021/05/07 01:13:10;;;;;;;;;;;;;;;20.83;36.20;100911.97;2168370;40;115455;-57
2021/05/07 01:15:05;;;;;;;;;;;;;;;20.83;36.37;100911.97;2168133;40;115450;-58
2021/05/07 01:16:36;;;;;;;;;;;;;;;20.81;36.21;100912.28;2172580;40;115979;-58
2021/05/07 01:18:07;;;;;;;;;;;;;;;20.80;36.98;100909.81;2167978;40;116143;-56
2021/05/07 01:19:39;;;;;;;;;;;;;;;20.82;36.66;100915.91;2168287;40;115885;-56
2021/05/07 01:21:10;;;;;;;;;;;;;;;20.82;37.11;100924.34;2168323;40;115599;-59
2021/05/07 01:22:42;;;;;;;;;;;;;;;20.81;36.87;100919.88;2167903;40;115987;-54
2021/05/07 01:24:14;;;;;;;;;;;;;;;20.78;36.83;100912.91;2168070;40;115510;-56
2021/05/07 01:25:45;;;;;;;;;;;;;;;20.77;36.89;100914.03;2170340;40;116044;-57
2021/05/07 01:27:16;;;;;;;;;;;;;;;20.77;36.92;100922.47;2167714;40;114064;-57
2021/05/07 01:28:48;;;;;;;;;;;;;;;20.75;36.93;100926.75;2161407;40;114229;-58
2021/05/07 01:30:28;;;;;;;;;;;;;;;20.74;36.72;100928.72;2165286;40;114347;-55
2021/05/07 01:31:59;;;;;;;;;;;;;;;20.73;36.84;100923.41;2168114;40;114219;-56
2021/05/07 01:33:31;;;;;;;;;;;;;;;20.73;36.65;100923.41;2169803;40;113740;-55
2021/05/07 01:35:03;;;;;;;;;;;;;;;20.73;36.70;100927.03;2162562;40;113777;-55
2021/05/07 01:36:34;;;;;;;;;;;;;;;20.71;37.02;100926.53;2167447;40;114444;-59
2021/05/07 01:38:08;;;;;;;;;;;;;;;20.70;37.01;100936.09;2167949;40;115189;-57
2021/05/07 01:39:39;;;;;;;;;;;;;;;20.69;37.16;100926.00;2172395;40;117295;-58
2021/05/07 01:41:10;;;;;;;;;;;;;;;20.69;37.04;100926.00;2169849;40;113827;-56
2021/05/07 01:42:42;;;;;;;;;;;;;;;20.66;37.28;100923.81;2167928;40;113743;-60
2021/05/07 01:44:13;;;;;;;;;;;;;;;20.69;37.16;100936.41;2167123;40;113696;-56
2021/05/07 01:45:44;;;;;;;;;;;;;;;20.66;37.04;100935.06;2167520;40;113826;-57
2021/05/07 01:47:16;;;;;;;;;;;;;;;20.66;36.82;100929.44;2167711;40;113726;-56
2021/05/07 01:48:47;;;;;;;;;;;;;;;20.65;36.59;100927.78;2163938;40;113794;-58
2021/05/07 01:50:20;;;;;;;;;;;;;;;20.64;36.95;100930.88;2164710;40;114850;-55
2021/05/07 01:51:51;;;;;;;;;;;;;;;20.62;36.96;100933.19;2166559;40;115221;-56
2021/05/07 01:53:22;;;;;;;;;;;;;;;20.60;36.94;100938.25;2167555;40;115110;-56
2021/05/07 01:54:53;;;;;;;;;;;;;;;20.60;36.99;100938.25;2166550;40;114894;-53
2021/05/07 01:56:24;;;;;;;;;;;;;;;20.57;36.95;100938.88;2167681;40;115045;-55
2021/05/07 01:57:57;;;;;;;;;;;;;;;20.58;36.67;100944.16;2173297;40;115256;-56
2021/05/07 01:59:28;;;;;;;;;;;;;;;20.57;37.06;100938.88;2163193;40;115547;-58
2021/05/07 02:00:59;;;;;;;;;;;;;;;20.56;37.16;100938.03;2165684;40;115138;-59
2021/05/07 02:02:30;;;;;;;;;;;;;;;20.56;37.13;100951.25;2162188;40;115655;-59
2021/05/07 02:04:02;;;;;;;;;;;;;;;20.56;36.64;100949.28;2165951;40;114905;-58
2021/05/07 02:05:33;;;;;;;;;;;;;;;20.55;36.89;100956.03;2167563;40;114824;-58
2021/05/07 02:07:04;;;;;;;;;;;;;;;20.56;36.63;100965.28;2167022;40;114992;-58
2021/05/07 02:08:35;;;;;;;;;;;;;;;20.54;36.62;100959.13;2173181;40;114967;-57
2021/05/07 02:10:07;;;;;;;;;;;;;;;20.53;36.71;100961.13;2172231;40;115272;-59
2021/05/07 02:11:39;;;;;;;;;;;;;;;20.54;36.65;100964.75;2172936;40;115588;-55
2021/05/07 02:13:11;;;;;;;;;;;;;;;20.54;36.88;100961.94;2169538;40;115368;-56
2021/05/07 02:14:42;;;;;;;;;;;;;;;20.50;37.08;100966.50;2165485;40;115477;-57
2021/05/07 02:16:13;;;;;;;;;;;;;;;20.50;36.75;100964.53;2166739;40;115633;-56
2021/05/07 02:17:45;;;;;;;;;;;;;;;20.50;36.72;100974.91;2166358;40;116096;-58
2021/05/07 02:19:16;;;;;;;;;;;;;;;20.48;36.87;100972.44;2165960;40;114643;-57
2021/05/07 02:20:48;;;;;;;;;;;;;;;20.47;36.81;100975.53;2168772;40;116169;-58
2021/05/07 02:22:20;;;;;;;;;;;;;;;20.46;36.98;100974.72;2167927;40;115427;-57
2021/05/07 02:23:52;;;;;;;;;;;;;;;20.45;37.05;100973.03;2172462;40;115675;-55
2021/05/07 02:25:25;;;;;;;;;;;;;;;20.43;37.03;100980.94;2169767;40;115585;-59
2021/05/07 02:26:56;;;;;;;;;;;;;;;20.41;36.70;100981.25;2167208;40;115463;-58
2021/05/07 02:28:27;;;;;;;;;;;;;;;20.41;36.88;100980.41;2164508;40;115529;-59
2021/05/07 02:29:58;;;;;;;;;;;;;;;20.42;36.58;100985.72;2167430;40;116300;-58
2021/05/07 02:31:29;;;;;;;;;;;;;;;20.44;37.06;100993.00;2169492;40;115477;-55
2021/05/07 02:33:00;;;;;;;;;;;;;;;20.38;37.01;100986.66;2167806;40;114473;-54
2021/05/07 02:34:31;;;;;;;;;;;;;;;20.42;36.22;100994.16;2167888;40;113956;-56
2021/05/07 02:36:03;;;;;;;;;;;;;;;20.40;36.71;100992.75;2167456;40;113748;-57
2021/05/07 02:37:34;;;;;;;;;;;;;;;20.39;36.35;100993.94;2167928;40;113882;-57
2021/05/07 02:39:05;;;;;;;;;;;;;;;20.37;36.62;101007.41;2166382;40;113892;-57
2021/05/07 02:40:36;;;;;;;;;;;;;;;20.37;36.73;101005.44;2166545;40;114228;-57
2021/05/07 02:42:07;;;;;;;;;;;;;;;20.36;36.61;101014.16;2167569;40;114151;-56
2021/05/07 02:43:38;;;;;;;;;;;;;;;20.37;36.38;101007.41;2167614;40;114012;-58
2021/05/07 02:45:10;;;;;;;;;;;;;;;20.35;36.39;101018.13;2166777;40;113719;-55
2021/05/07 02:46:41;;;;;;;;;;;;;;;20.34;36.30;101013.66;2162736;40;115220;-58
2021/05/07 02:48:12;;;;;;;;;;;;;;;20.32;36.61;101024.34;2157297;40;113867;-57
2021/05/07 02:49:45;;;;;;;;;;;;;;;20.31;36.67;101020.69;2163661;40;113934;-56
2021/05/07 02:51:16;;;;;;;;;;;;;;;20.29;36.64;101019.31;2165599;40;113687;-57
2021/05/07 02:52:47;;;;;;;;;;;;;;;20.30;36.88;101027.47;2164136;40;113635;-55
2021/05/07 02:54:18;;;;;;;;;;;;;;;20.30;36.85;101021.84;2167843;40;114983;-56
2021/05/07 02:55:49;;;;;;;;;;;;;;;20.29;36.74;101030.53;2166360;40;115143;-56
2021/05/07 02:57:20;;;;;;;;;;;;;;;20.28;36.71;101028.88;2168555;40;114833;-57
2021/05/07 02:58:51;;;;;;;;;;;;;;;20.25;36.57;101030.31;2173542;40;114690;-57
2021/05/07 03:00:23;;;;;;;;;;;;;;;20.26;36.64;101025.53;2157302;40;117718;-58
2021/05/07 03:01:54;;;;;;;;;;;;;;;20.25;36.52;101023.88;2163929;40;115491;-58
2021/05/07 03:03:25;;;;;;;;;;;;;;;20.25;36.48;101035.09;2167403;40;114950;-57
2021/05/07 03:04:56;;;;;;;;;;;;;;;20.24;36.64;101031.44;2171026;40;114831;-57
2021/05/07 03:06:27;;;;;;;;;;;;;;;20.24;36.69;101037.06;2163686;40;114888;-57
2021/05/07 03:07:58;;;;;;;;;;;;;;;20.22;36.77;101036.53;2166088;40;115097;-55
2021/05/07 03:09:29;;;;;;;;;;;;;;;20.21;36.45;101040.50;2167403;40;114940;-55
2021/05/07 03:11:01;;;;;;;;;;;;;;;20.21;36.73;101040.50;2168468;40;114889;-58
2021/05/07 03:12:32;;;;;;;;;;;;;;;20.20;36.51;101037.97;2168805;40;115033;-56
2021/05/07 03:14:03;;;;;;;;;;;;;;;20.19;36.64;101041.91;2170235;40;114552;-56
2021/05/07 03:15:34;;;;;;;;;;;;;;;20.22;36.54;101044.09;2169355;40;115474;-59
2021/05/07 03:17:05;;;;;;;;;;;;;;;20.21;36.89;101050.88;2167401;40;115735;-59
2021/05/07 03:18:37;;;;;;;;;;;;;;;20.19;36.52;101051.16;2168593;40;115488;-58
2021/05/07 03:20:08;;;;;;;;;;;;;;;20.19;36.91;101053.13;2167972;40;115913;-55
2021/05/07 03:21:39;;;;;;;;;;;;;;;20.20;36.89;101054.81;2166064;40;115612;-58
2021/05/07 03:23:11;;;;;;;;;;;;;;;20.20;36.93;101058.44;2170348;40;115737;-58
2021/05/07 03:24:43;;;;;;;;;;;;;;;20.21;36.58;101053.69;2162117;40;116164;-59
2021/05/07 03:26:14;;;;;;;;;;;;;;;20.19;36.86;101062.38;2165558;40;115533;-58
2021/05/07 03:27:45;;;;;;;;;;;;;;;20.17;36.62;101061.84;2171608;40;116007;-57
2021/05/07 03:29:16;;;;;;;;;;;;;;;20.17;36.82;101063.84;2168613;40;115501;-59
2021/05/07 03:30:48;;;;;;;;;;;;;;;20.14;37.16;101064.44;2168650;40;114753;-65
2021/05/07 03:32:19;;;;;;;;;;;;;;;20.15;36.94;101071.72;2175799;40;115492;-55
2021/05/07 03:33:51;;;;;;;;;;;;;;;20.13;36.89;101068.34;2166653;40;115800;-57
2021/05/07 03:35:22;;;;;;;;;;;;;;;20.13;36.92;101072.00;2166697;40;115450;-55
2021/05/07 03:36:53;;;;;;;;;;;;;;;20.12;36.82;101075.97;2167341;40;116124;-54
2021/05/07 03:38:24;;;;;;;;;;;;;;;20.11;36.75;101076.25;2164973;40;113814;-57
2021/05/07 03:39:55;;;;;;;;;;;;;;;20.11;36.66;101074.28;2168450;40;113655;-56
2021/05/07 03:41:27;;;;;;;;;;;;;;;20.10;37.04;101077.38;2167087;40;113932;-58
2021/05/07 03:42:58;;;;;;;;;;;;;;;20.08;37.18;101080.50;2168272;40;113746;-57
2021/05/07 03:44:29;;;;;;;;;;;;;;;20.07;36.83;101084.44;2161889;40;114155;-58
2021/05/07 03:46:00;;;;;;;;;;;;;;;20.07;37.12;101083.63;2166036;40;113813;-57
2021/05/07 03:47:31;;;;;;;;;;;;;;;20.07;37.00;101086.41;2168703;40;113930;-56
2021/05/07 03:49:03;;;;;;;;;;;;;;;20.06;37.26;101081.94;2170149;40;113799;-57
2021/05/07 03:50:34;;;;;;;;;;;;;;;20.06;37.14;101082.78;2170021;40;114512;-55
2021/05/07 03:52:05;;;;;;;;;;;;;;;20.07;37.22;101089.22;2168349;40;114033;-58
2021/05/07 03:53:36;;;;;;;;;;;;;;;20.04;36.93;101092.63;2168252;40;114003;-57
2021/05/07 03:55:09;;;;;;;;;;;;;;;20.03;37.05;101093.78;2165205;40;113684;-55
2021/05/07 03:56:40;;;;;;;;;;;;;;;20.03;37.00;101100.22;2162968;40;113807;-58
2021/05/07 03:58:11;;;;;;;;;;;;;;;20.02;36.94;101095.75;2171105;40;113583;-59
2021/05/07 03:59:42;;;;;;;;;;;;;;;20.03;37.13;101097.41;2167026;40;114955;-57
2021/05/07 04:01:13;;;;;;;;;;;;;;;20.02;37.23;101097.72;2168378;40;114850;-59
2021/05/07 04:02:44;;;;;;;;;;;;;;;19.99;37.36;101097.16;2161268;40;115004;-55
2021/05/07 04:04:16;;;;;;;;;;;;;;;19.98;37.28;101097.47;2165659;40;113815;-56
2021/05/07 04:05:51;;;;;;;;;;;;;;;19.97;36.88;101107.03;2164917;40;115310;-59
2021/05/07 04:07:22;;;;;;;;;;;;;;;19.98;37.00;101098.31;2164965;40;115056;-56
2021/05/07 04:10:39;;;;;;;;;;;;;;;19.97;37.05;101104.22;2173809;40;114924;-58
2021/05/07 04:12:18;;;;;;;;;;;;;;;19.95;37.24;101107.31;2162290;40;114867;-57
2021/05/07 04:13:50;;;;;;;;;;;;;;;19.93;37.44;101109.59;2166342;40;114795;-56
2021/05/07 04:15:21;;;;;;;;;;;;;;;19.93;37.05;101109.59;2168277;40;114045;-56
2021/05/07 04:16:52;;;;;;;;;;;;;;;19.94;37.10;101110.44;2167631;40;114958;-56
2021/05/07 04:18:23;;;;;;;;;;;;;;;19.93;37.14;101108.75;2162808;40;115031;-58
2021/05/07 04:19:54;;;;;;;;;;;;;;;19.93;37.08;101119.97;2169606;40;114947;-58
2021/05/07 04:21:25;;;;;;;;;;;;;;;19.92;37.28;101121.09;2167674;40;115792;-55
2021/05/07 04:22:56;;;;;;;;;;;;;;;19.92;37.17;101130.34;2168277;40;116281;-59
2021/05/07 04:24:28;;;;;;;;;;;;;;;19.91;37.41;101119.44;2168196;40;115963;-56
2021/05/07 04:26:00;;;;;;;;;;;;;;;19.89;37.37;101118.91;2167910;40;115573;-57
2021/05/07 04:27:31;;;;;;;;;;;;;;;19.88;37.23;101123.69;2170351;40;115650;-58
2021/05/07 04:29:03;;;;;;;;;;;;;;;19.89;37.23;101125.38;2168294;40;115521;-57
2021/05/07 04:30:34;;;;;;;;;;;;;;;19.89;37.36;101121.72;2167891;40;115521;-56
2021/05/07 04:32:06;;;;;;;;;;;;;;;19.88;37.56;101129.28;2168516;40;116928;-58
2021/05/07 04:33:37;;;;;;;;;;;;;;;19.87;37.36;101129.59;2173323;40;115430;-54
2021/05/07 04:35:09;;;;;;;;;;;;;;;19.86;37.24;101130.72;2169792;40;115989;-58
2021/05/07 04:36:40;;;;;;;;;;;;;;;19.85;37.52;101132.69;2168395;40;115829;-53
2021/05/07 04:38:12;;;;;;;;;;;;;;;19.85;37.21;101131.88;2165203;40;115744;-56
2021/05/07 04:39:43;;;;;;;;;;;;;;;19.85;37.19;101135.47;2165044;40;116477;-55
2021/05/07 04:41:14;;;;;;;;;;;;;;;19.83;37.00;101137.75;2168563;40;114770;-57
2021/05/07 04:42:45;;;;;;;;;;;;;;;19.84;37.03;101141.41;2167597;40;113911;-57
2021/05/07 04:44:16;;;;;;;;;;;;;;;19.81;37.16;101141.97;2168176;40;114843;-56
2021/05/07 04:45:47;;;;;;;;;;;;;;;19.82;37.24;101140.84;2163193;40;113682;-59
2021/05/07 04:47:18;;;;;;;;;;;;;;;19.81;37.16;101145.63;2161297;40;114608;-58
2021/05/07 04:48:49;;;;;;;;;;;;;;;19.80;37.35;101143.97;2167566;40;114576;-59
2021/05/07 04:50:20;;;;;;;;;;;;;;;19.79;36.99;101144.28;2158559;40;113974;-56
2021/05/07 04:51:52;;;;;;;;;;;;;;;19.80;37.42;101145.94;2168094;40;113752;-58
2021/05/07 04:53:23;;;;;;;;;;;;;;;19.80;37.03;101140.34;2158097;40;114114;-57
2021/05/07 04:54:54;;;;;;;;;;;;;;;19.82;37.35;101147.31;2157073;40;114088;-56
2021/05/07 04:56:25;;;;;;;;;;;;;;;19.86;37.83;101151.19;2163100;40;113885;-58
2021/05/07 04:57:56;;;;;;;;;;;;;;;19.90;37.44;101157.84;2167853;40;113823;-58
2021/05/07 04:59:28;;;;;;;;;;;;;;;19.89;37.63;101152.56;2168016;40;113953;-56
2021/05/07 05:00:59;;;;;;;;;;;;;;;19.91;37.86;101153.09;2163947;40;113936;-55
2021/05/07 05:02:30;;;;;;;;;;;;;;;19.93;37.87;101162.03;2164671;40;113912;-57
2021/05/07 05:04:05;;;;;;;;;;;;;;;19.95;37.79;101166.22;2170346;40;113666;-57
2021/05/07 05:05:37;;;;;;;;;;;;;;;19.99;37.78;101172.88;2168129;40;114899;-57
2021/05/07 05:07:09;;;;;;;;;;;;;;;20.03;37.89;101175.09;2166894;40;115402;-57
2021/05/07 05:08:40;;;;;;;;;;;;;;;20.05;37.64;101172.81;2161491;40;114969;-55
2021/05/07 05:10:11;;;;;;;;;;;;;;;20.07;38.10;101171.41;2164629;40;114963;-55
2021/05/07 05:11:42;;;;;;;;;;;;;;;20.11;38.29;101180.88;2164313;40;115802;-54
2021/05/07 05:13:14;;;;;;;;;;;;;;;20.15;38.11;101173.53;2165461;40;115224;-57
2021/05/07 05:14:45;;;;;;;;;;;;;;;20.19;38.69;101183.03;2164284;40;115004;-59
2021/05/07 05:16:16;;;;;;;;;;;;;;;20.24;38.52;101180.16;2165400;40;115380;-58
2021/05/07 05:17:49;;;;;;;;;;;;;;;20.29;38.15;101191.31;2167292;40;114936;-55
2021/05/07 05:19:20;;;;;;;;;;;;;;;20.33;38.45;101191.56;2163838;40;114913;-55
2021/05/07 05:20:52;;;;;;;;;;;;;;;20.38;38.42;101194.31;2163748;40;114938;-58
2021/05/07 05:22:23;;;;;;;;;;;;;;;20.41;38.23;101191.72;2166067;40;115359;-58
2021/05/07 05:23:56;;;;;;;;;;;;;;;20.46;38.05;101199.25;2169774;40;115148;-55
2021/05/07 05:25:27;;;;;;;;;;;;;;;20.51;39.15;101198.34;2168322;40;115151;-58
2021/05/07 05:26:58;;;;;;;;;;;;;;;20.54;38.60;101200.53;2169333;40;115049;-58
2021/05/07 05:28:29;;;;;;;;;;;;;;;20.58;38.31;101198.81;2168864;40;116153;-57
2021/05/07 05:30:01;;;;;;;;;;;;;;;20.62;38.40;101200.72;2166733;40;116304;-62
2021/05/07 05:31:32;;;;;;;;;;;;;;;20.65;38.14;101205.72;2161358;40;115485;-56
2021/05/07 05:33:03;;;;;;;;;;;;;;;20.69;38.05;101200.31;2165999;40;115723;-58
2021/05/07 05:34:35;;;;;;;;;;;;;;;20.73;37.98;101207.00;2167534;40;115600;-55
2021/05/07 05:36:06;;;;;;;;;;;;;;;20.77;38.09;101206.09;2159639;40;115647;-56
2021/05/07 05:37:38;;;;;;;;;;;;;;;20.81;37.66;101206.31;2165676;40;115561;-55
2021/05/07 05:39:09;;;;;;;;;;;;;;;20.83;37.38;101204.88;2161309;40;115675;-55
2021/05/07 05:40:41;;;;;;;;;;;;;;;20.88;37.68;101208.75;2166162;40;115496;-60
2021/05/07 05:42:12;;;;;;;;;;;;;;;20.92;37.19;101212.59;2168235;40;115752;-57
2021/05/07 05:43:45;;;;;;;;;;;;;;;20.95;37.07;101212.00;2173151;40;115528;-59
2021/05/07 05:45:17;;;;;;;;;;;;;;;21.00;37.91;101214.72;2168971;40;114540;-58
2021/05/07 05:46:48;;;;;;;;;;;;;;;21.02;37.58;101215.25;2170313;40;114643;-58
2021/05/07 05:48:19;;;;;;;;;;;;;;;21.06;37.41;101219.97;2167971;40;113641;-59
2021/05/07 05:49:51;;;;;;;;;;;;;;;21.10;37.22;101220.19;2167646;40;114112;-58
2021/05/07 05:51:22;;;;;;;;;;;;;;;21.13;37.06;101220.44;2167326;40;113921;-59
2021/05/07 05:52:53;;;;;;;;;;;;;;;21.15;36.86;101223.78;2168023;40;113898;-58
2021/05/07 05:54:24;;;;;;;;;;;;;;;21.20;36.82;101228.50;2168105;40;113837;-54
2021/05/07 05:55:55;;;;;;;;;;;;;;;21.23;37.07;101231.50;2167333;40;113918;-59
2021/05/07 05:57:26;;;;;;;;;;;;;;;21.27;37.49;101226.94;2173221;40;113913;-58
2021/05/07 05:58:57;;;;;;;;;;;;;;;21.31;37.50;101235.59;2169828;40;113869;-56
2021/05/07 06:00:29;;;;;;;;;;;;;;;21.34;37.00;101239.78;2167056;40;113923;-56
2021/05/07 06:02:00;;;;;;;;;;;;;;;21.38;37.24;101240.84;2167410;40;114185;-57
2021/05/07 06:03:32;;;;;;;;;;;;;;;21.41;36.95;101245.84;2162867;40;113773;-64
2021/05/07 06:05:03;;;;;;;;;;;;;;;21.43;36.75;101247.22;2167675;40;113595;-60
2021/05/07 06:06:34;;;;;;;;;;;;;;;21.47;36.67;101244.63;2167549;40;114001;-59
2021/05/07 06:08:05;;;;;;;;;;;;;;;21.49;36.88;101245.13;2170399;40;113698;-58
2021/05/07 06:09:36;;;;;;;;;;;;;;;21.51;36.48;101252.13;2166374;40;114838;-59
2021/05/07 06:11:08;;;;;;;;;;;;;;;21.54;36.63;101254.31;2161820;40;114753;-58
2021/05/07 06:12:40;;;;;;;;;;;;;;;21.58;36.62;101260.16;2164875;40;115458;-55
2021/05/07 06:14:11;;;;;;;;;;;;;;;21.61;36.65;101268.81;2167904;40;114935;-57
2021/05/07 06:15:42;;;;;;;;;;;;;;;21.63;36.60;101263.72;2167552;40;114956;-55
2021/05/07 06:17:13;;;;;;;;;;;;;;;21.66;36.26;101263.13;2166473;40;115099;-54
2021/05/07 06:18:44;;;;;;;;;;;;;;;21.70;36.34;101264.16;2161293;40;114800;-56
2021/05/07 06:20:16;;;;;;;;;;;;;;;21.72;36.42;101256.22;2173718;40;115160;-56
2021/05/07 06:21:48;;;;;;;;;;;;;;;21.74;36.08;101248.34;2163872;40;114939;-55
2021/05/07 06:23:19;;;;;;;;;;;;;;;21.79;36.15;101263.44;2169526;40;115157;-57
2021/05/07 06:24:50;;;;;;;;;;;;;;;21.81;36.12;101258.31;2168352;40;115109;-56
2021/05/07 06:26:21;;;;;;;;;;;;;;;21.82;35.83;101260.84;2165372;40;114728;-56
2021/05/07 06:27:52;;;;;;;;;;;;;;;21.85;35.69;101263.03;2170040;40;115154;-57
2021/05/07 06:29:24;;;;;;;;;;;;;;;21.87;36.01;101268.34;2170818;40;114868;-56
2021/05/07 06:30:58;;;;;;;;;;;;;;;21.88;36.02;101270.88;2174108;40;115811;-55
2021/05/07 06:32:29;;;;;;;;;;;;;;;21.90;36.01;101264.91;2167481;40;117423;-55
2021/05/07 06:34:01;;;;;;;;;;;;;;;21.92;35.69;101273.88;2168891;40;115729;-56
2021/05/07 06:35:32;;;;;;;;;;;;;;;21.94;35.64;101266.00;2167055;40;118312;-57
2021/05/07 06:37:03;;;;;;;;;;;;;;;21.95;35.79;101268.50;2167982;40;115705;-56
2021/05/07 06:38:38;;;;;;;;;;;;;;;21.95;35.93;101265.69;2164382;40;115878;-57
2021/05/07 06:40:10;;;;;;;;;;;;;;;21.98;36.32;101272.69;2166060;40;116433;-58
2021/05/07 06:41:42;;;;;;;;;;;;;;;21.98;36.44;101267.91;2166510;40;115765;-56
2021/05/07 06:43:14;;;;;;;;;;;;;;;22.00;36.42;101273.19;2167246;40;115626;-59
2021/05/07 06:44:45;;;;;;;;;;;;;;;22.00;36.56;101271.22;2165327;40;115898;-56
2021/05/07 06:46:17;;;;;;;;;;;;;;;22.03;36.58;101284.66;2166257;40;115850;-57
2021/05/07 06:47:48;;;;;;;;;;;;;;;22.02;36.16;101277.38;2164515;40;115765;-56
2021/05/07 06:49:19;;;;;;;;;;;;;;;21.93;35.87;101284.88;2164259;40;115619;-57
2021/05/07 06:50:50;;;;;;;;;;;;;;;21.86;34.84;101280.75;2157629;40;115566;-54
2021/05/07 06:52:21;;;;;;;;;;;;;;;21.85;34.38;101288.34;2164306;40;115621;-58
2021/05/07 06:53:55;;;;;;;;;;;;;;;21.80;33.96;101287.63;2167826;40;113689;-57
2021/05/07 06:55:26;;;;;;;;;;;;;;;21.81;33.81;101290.09;2171551;40;114100;-57
2021/05/07 06:56:58;;;;;;;;;;;;;;;21.80;33.84;101280.03;2165577;40;114085;-59
2021/05/07 06:58:30;;;;;;;;;;;;;;;21.82;33.81;101288.97;2168486;40;115559;-56
2021/05/07 07:00:02;;;;;;;;;;;;;;;21.83;33.50;101292.63;2168461;40;113917;-56
2021/05/07 07:01:34;;;;;;;;;;;;;;;21.81;33.50;101286.44;2168999;40;114032;-58
2021/05/07 07:03:05;;;;;;;;;;;;;;;21.81;33.95;101292.09;2168752;40;114155;-55
2021/05/07 07:04:36;;;;;;;;;;;;;;;21.80;33.65;101296.06;2167751;40;113602;-54
2021/05/07 07:06:08;;;;;;;;;;;;;;;21.79;33.52;101294.38;2168506;40;113899;-55
2021/05/07 07:07:39;;;;;;;;;;;;;;;21.78;33.44;101289.91;2168623;40;113725;-54
2021/05/07 07:09:23;;;;;;;;;;;;;;;21.75;33.48;101291.34;2168297;40;114322;-57
2021/05/07 07:10:58;;;;;;;;;;;;;;;21.73;33.37;101294.47;2168641;40;113838;-55
2021/05/07 07:12:29;;;;;;;;;;;;;;;21.73;33.22;101293.63;2172615;40;114247;-56
2021/05/07 07:14:15;;;;;;;;;;;;;;;21.72;33.00;101300.41;2162093;40;113903;-57
2021/05/07 07:15:46;;;;;;;;;;;;;;;21.70;32.90;101303.53;2166168;40;113881;-57
2021/05/07 07:17:17;;;;;;;;;;;;;;;21.69;33.03;101303.84;2166907;40;114195;-57
2021/05/07 07:18:49;;;;;;;;;;;;;;;21.71;33.45;101305.19;2168519;40;114845;-56
2021/05/07 07:20:21;;;;;;;;;;;;;;;21.70;33.16;101295.09;2168865;40;115468;-54
2021/05/07 07:21:53;;;;;;;;;;;;;;;21.71;33.38;101305.19;2167626;40;115903;-55
2021/05/07 07:23:24;;;;;;;;;;;;;;;21.70;33.37;101303.53;2161548;40;115155;-56
2021/05/07 07:24:55;;;;;;;;;;;;;;;21.68;33.38;101299.34;2164330;40;115079;-57
2021/05/07 07:26:26;;;;;;;;;;;;;;;21.67;33.16;101303.28;2165313;40;115196;-56
2021/05/07 07:27:58;;;;;;;;;;;;;;;21.66;32.95;101310.09;2167144;40;115315;-55
2021/05/07 07:29:31;;;;;;;;;;;;;;;21.65;33.14;101312.06;2167338;40;115166;-58
2021/05/07 07:31:03;;;;;;;;;;;;;;;21.62;33.12;101315.47;2168368;40;115410;-58
2021/05/07 07:32:34;;;;;;;;;;;;;;;21.63;33.18;101308.69;2173990;40;116086;-56
2021/05/07 07:34:06;;;;;;;;;;;;;;;21.61;32.98;101316.63;2157824;40;115487;-57
2021/05/07 07:35:37;;;;;;;;;;;;;;;21.60;32.98;101314.13;2164827;40;115096;-57
2021/05/07 07:37:08;;;;;;;;;;;;;;;21.58;32.62;101322.84;2168251;40;116309;-55
2021/05/07 07:38:39;;;;;;;;;;;;;;;21.56;32.65;101321.50;2166366;40;115453;-57
2021/05/07 07:40:11;;;;;;;;;;;;;;;21.52;32.55;101326.06;2166608;40;114529;-57
2021/05/07 07:41:42;;;;;;;;;;;;;;;21.49;32.58;101330.31;2166646;40;115613;-55
2021/05/07 07:43:13;;;;;;;;;;;;;;;21.23;30.32;101323.41;2166726;40;116256;-56
2021/05/07 07:44:44;;;;;;;;;;;;;;;21.26;32.09;101332.06;2153657;40;116736;-54
2021/05/07 07:46:15;;;;;;;;;;;;;;;21.26;32.25;101340.50;2152752;40;115455;-56
2021/05/07 07:47:47;;;;;;;;;;;;;;;21.33;31.65;101337.31;2164100;40;115636;-57